createdAt,value
2022-08-02T00:01:18.324Z,2.97
2022-08-02T00:03:44.766Z,3.00
2022-08-02T00:06:11.369Z,2.77
2022-08-02T00:08:37.753Z,2.80
2022-08-02T00:11:05.487Z,3.03
2022-08-02T00:13:32.367Z,2.97
2022-08-02T00:15:59.143Z,3.10
2022-08-02T00:18:25.627Z,2.87
2022-08-02T00:20:52.078Z,2.93
2022-08-02T00:23:19.458Z,3.30
2022-08-02T00:25:55.465Z,3.33
2022-08-02T00:28:27.440Z,2.90
2022-08-02T00:30:54.087Z,3.23
2022-08-02T00:34:28.016Z,2.90
2022-08-02T00:36:07.134Z,2.97
2022-08-02T00:38:33.662Z,3.07
2022-08-02T00:41:00.075Z,2.60
2022-08-02T00:43:26.489Z,3.40
2022-08-02T00:46:03.003Z,3.43
2022-08-02T00:48:30.491Z,3.20
2022-08-02T00:50:57.813Z,3.17
2022-08-02T00:53:24.260Z,3.40
2022-08-02T00:55:50.643Z,3.07
2022-08-02T00:58:17.184Z,3.50
2022-08-02T01:00:44.083Z,3.13
2022-08-02T01:03:10.465Z,3.30
2022-08-02T01:05:55.760Z,3.50
2022-08-02T01:08:29.464Z,3.27
2022-08-02T01:10:58.167Z,2.87
2022-08-02T01:13:25.947Z,2.70
2022-08-02T01:16:02.055Z,3.30
2022-08-02T01:18:35.578Z,3.10
2022-08-02T01:21:29.199Z,3.10
2022-08-02T01:23:58.748Z,3.20
2022-08-02T01:26:48.871Z,3.17
2022-08-02T01:29:34.558Z,2.93
2022-08-02T01:32:14.630Z,2.97
2022-08-02T01:34:46.982Z,3.17
2022-08-02T01:37:21.639Z,3.70
2022-08-02T01:39:53.990Z,3.10
2022-08-02T01:42:22.602Z,3.17
2022-08-02T01:44:51.300Z,3.70
2022-08-02T01:47:22.713Z,3.20
2022-08-02T01:49:53.118Z,3.33
2022-08-02T01:52:21.893Z,3.00
2022-08-02T01:55:03.694Z,3.17
2022-08-02T01:57:41.824Z,3.00
2022-08-02T02:00:10.858Z,3.10
2022-08-02T02:02:41.686Z,3.40
2022-08-02T02:05:14.716Z,3.07
2022-08-02T02:07:43.555Z,3.50
2022-08-02T02:10:14.330Z,3.10
2022-08-02T02:12:44.166Z,3.30
2022-08-02T02:15:12.591Z,3.50
2022-08-02T02:17:57.117Z,3.40
2022-08-02T02:20:30.737Z,3.10
2022-08-02T02:22:58.709Z,3.00
2022-08-02T02:25:32.290Z,3.10
2022-08-02T02:28:10.984Z,3.27
2022-08-02T02:30:41.295Z,3.43
2022-08-02T02:33:09.628Z,3.83
2022-08-02T02:35:37.836Z,3.63
2022-08-02T02:38:08.062Z,3.70
2022-08-02T02:40:37.250Z,3.73
2022-08-02T02:43:05.159Z,4.07
2022-08-02T02:45:33.256Z,3.60
2022-08-02T02:48:02.136Z,4.50
2022-08-02T02:50:30.447Z,3.50
2022-08-02T02:52:58.063Z,3.80
2022-08-02T02:55:25.585Z,3.70
2022-08-02T02:57:52.268Z,3.30
2022-08-02T03:00:39.047Z,3.37
2022-08-02T03:03:07.339Z,3.70
2022-08-02T03:05:33.913Z,4.13
2022-08-02T03:08:00.479Z,3.77
2022-08-02T03:10:27.366Z,4.10
2022-08-02T03:12:54.149Z,3.60
2022-08-02T03:15:22.040Z,3.70
2022-08-02T03:17:48.442Z,4.13
2022-08-02T03:20:20.482Z,3.80
2022-08-02T03:22:47.397Z,3.70
2022-08-02T03:25:15.996Z,3.50
2022-08-02T03:27:42.607Z,3.90
2022-08-02T03:30:11.673Z,3.53
2022-08-02T03:32:40.635Z,3.70
2022-08-02T03:35:11.010Z,3.53
2022-08-02T03:37:38.495Z,3.90
2022-08-02T03:40:08.541Z,4.00
2022-08-02T03:42:35.045Z,4.17
2022-08-02T03:45:08.144Z,4.33
2022-08-02T03:47:37.477Z,4.03
2022-08-02T03:50:04.464Z,4.93
2022-08-02T03:52:33.144Z,4.37
2022-08-02T03:54:59.879Z,4.53
2022-08-02T03:57:26.787Z,4.93
2022-08-02T03:59:53.271Z,4.43
2022-08-02T04:02:19.651Z,4.80
2022-08-02T04:04:46.189Z,4.80
2022-08-02T04:07:12.619Z,5.07
2022-08-02T04:09:39.010Z,4.53
2022-08-02T04:12:05.669Z,4.37
2022-08-02T04:14:35.692Z,5.00
2022-08-02T04:17:07.705Z,5.23
2022-08-02T04:19:53.930Z,5.40
2022-08-02T04:22:27.585Z,5.27
2022-08-02T04:24:59.223Z,5.60
2022-08-02T04:27:50.510Z,5.37
2022-08-02T04:30:14.455Z,5.17
2022-08-02T04:32:41.045Z,5.27
2022-08-02T04:35:19.024Z,5.47
2022-08-02T04:38:05.758Z,5.00
2022-08-02T04:40:33.203Z,5.50
2022-08-02T04:42:59.662Z,4.77
2022-08-02T04:45:27.783Z,5.63
2022-08-02T04:48:03.857Z,5.87
2022-08-02T04:50:31.210Z,5.80
2022-08-02T04:52:57.695Z,6.00
2022-08-02T04:55:28.524Z,5.53
2022-08-02T04:57:55.892Z,6.27
2022-08-02T05:00:22.410Z,5.63
2022-08-02T05:02:49.740Z,6.27
2022-08-02T05:05:16.656Z,5.83
2022-08-02T05:07:43.066Z,5.87
2022-08-02T05:10:10.022Z,5.57
2022-08-02T05:12:38.300Z,6.10
2022-08-02T05:15:05.254Z,6.07
2022-08-02T05:17:31.770Z,6.90
2022-08-02T05:19:58.127Z,6.20
2022-08-02T05:22:24.539Z,6.23
2022-08-02T05:24:51.120Z,6.23
2022-08-02T05:27:21.754Z,6.83
2022-08-02T05:29:53.128Z,6.13
2022-08-02T05:32:20.708Z,6.67
2022-08-02T05:34:50.375Z,6.37
2022-08-02T05:37:16.878Z,7.20
2022-08-02T05:39:55.684Z,6.60
2022-08-02T05:42:23.668Z,5.93
2022-08-02T05:44:50.248Z,5.97
2022-08-02T05:47:16.884Z,5.73
2022-08-02T05:49:43.406Z,5.87
2022-08-02T05:52:18.539Z,5.43
2022-08-02T05:54:50.361Z,5.40
2022-08-02T05:57:50.510Z,4.93
2022-08-02T06:00:17.599Z,4.70
2022-08-02T06:02:44.021Z,4.67
2022-08-02T06:05:20.377Z,4.57
2022-08-02T06:07:49.745Z,4.70
2022-08-02T06:10:20.036Z,4.30
2022-08-02T06:13:14.733Z,4.17
2022-08-02T06:15:52.819Z,4.80
2022-08-02T06:18:27.999Z,4.80
2022-08-02T06:22:32.694Z,4.80
2022-08-02T06:23:57.473Z,4.40
2022-08-02T06:26:27.434Z,4.70
2022-08-02T06:28:55.689Z,4.23
2022-08-02T06:31:22.693Z,4.13
2022-08-02T06:33:49.399Z,4.47
2022-08-02T06:36:51.644Z,4.10
2022-08-02T06:39:25.778Z,4.23
2022-08-02T06:41:52.388Z,4.10
2022-08-02T06:47:11.634Z,3.80
2022-08-02T06:49:51.751Z,3.70
2022-08-02T06:52:28.143Z,3.80
2022-08-02T06:54:56.764Z,3.87
2022-08-02T06:57:23.185Z,3.70
2022-08-02T06:59:49.592Z,3.67
2022-08-02T07:02:16.011Z,4.00
2022-08-02T07:04:42.546Z,3.33
2022-08-02T07:07:09.123Z,4.10
2022-08-02T07:09:35.686Z,4.17
2022-08-02T07:12:02.335Z,3.37
2022-08-02T07:14:28.825Z,3.47
2022-08-02T07:16:55.279Z,3.40
2022-08-02T07:19:21.745Z,3.53
2022-08-02T07:22:10.848Z,3.03
2022-08-02T07:24:37.416Z,3.40
2022-08-02T07:27:12.553Z,3.00
2022-08-02T07:29:45.467Z,2.97
2022-08-02T07:32:14.744Z,2.70
2022-08-02T07:34:42.612Z,2.90
2022-08-02T07:37:11.222Z,3.00
2022-08-02T07:39:51.068Z,2.70
2022-08-02T07:42:18.646Z,2.60
2022-08-02T07:44:49.009Z,2.73
2022-08-02T07:47:15.898Z,2.57
2022-08-02T07:49:42.342Z,2.70
2022-08-02T07:52:09.564Z,2.60
2022-08-02T07:54:36.084Z,2.40
2022-08-02T07:57:02.540Z,2.37
2022-08-02T07:59:29.178Z,2.30
2022-08-02T08:01:56.014Z,2.00
2022-08-02T08:04:22.548Z,2.30
2022-08-02T08:06:52.074Z,2.27
2022-08-02T08:09:19.183Z,2.17
2022-08-02T08:11:45.689Z,2.10
2022-08-02T08:14:16.489Z,1.85
2022-08-02T08:16:43.389Z,2.05
2022-08-02T08:19:10.077Z,2.00
2022-08-02T08:21:36.506Z,1.80
2022-08-02T08:24:04.634Z,2.17
2022-08-02T08:26:31.082Z,2.10
2022-08-02T08:28:57.507Z,2.00
2022-08-02T08:31:23.996Z,1.85
2022-08-02T08:33:50.488Z,3.20
2022-08-02T08:36:17.123Z,1.80
2022-08-02T08:38:43.613Z,1.70
2022-08-02T08:41:10.018Z,1.80
2022-08-02T08:43:37.245Z,2.17
2022-08-02T08:46:04.880Z,2.13
2022-08-02T08:48:33.142Z,2.00
2022-08-02T08:51:15.024Z,2.20
2022-08-02T08:53:44.137Z,1.95
2022-08-02T08:56:16.468Z,2.28
2022-08-02T08:58:45.044Z,2.20
2022-08-02T09:01:13.435Z,1.90
2022-08-02T09:03:39.913Z,2.10
2022-08-02T09:06:06.469Z,1.70
2022-08-02T09:08:33.074Z,2.40
2022-08-02T09:10:59.712Z,2.10
2022-08-02T09:13:45.096Z,2.30
2022-08-02T09:16:14.377Z,2.30
2022-08-02T09:18:47.104Z,2.40
2022-08-02T09:21:15.853Z,2.30
2022-08-02T09:23:47.631Z,1.85
2022-08-02T09:26:16.376Z,1.95
2022-08-02T09:28:46.474Z,1.90
2022-08-02T09:31:16.834Z,2.17
2022-08-02T09:33:44.991Z,2.20
2022-08-02T09:36:14.147Z,2.40
2022-08-02T09:38:52.044Z,2.20
2022-08-02T09:41:29.947Z,2.38
2022-08-02T09:44:05.373Z,1.90
2022-08-02T09:46:37.405Z,2.40
2022-08-02T09:49:10.378Z,2.28
2022-08-02T09:51:51.208Z,2.60
2022-08-02T09:54:24.475Z,2.17
2022-08-02T09:56:59.896Z,2.40
2022-08-02T09:59:27.487Z,2.40
2022-08-02T10:02:17.129Z,2.55
2022-08-02T10:04:53.384Z,2.20
2022-08-02T10:07:22.466Z,2.47
2022-08-02T10:09:50.221Z,2.25
2022-08-02T10:12:16.729Z,2.70
2022-08-02T10:14:43.908Z,2.20
2022-08-02T10:17:10.979Z,2.30
2022-08-02T10:20:03.474Z,2.20
2022-08-02T10:22:25.272Z,1.90
2022-08-02T10:24:52.648Z,1.98
2022-08-02T10:27:21.216Z,1.70
2022-08-02T10:29:54.877Z,1.45
2022-08-02T10:32:37.511Z,1.75
2022-08-02T10:35:19.526Z,1.60
2022-08-02T10:37:55.994Z,1.70
2022-08-02T10:40:28.705Z,1.70
2022-08-02T10:43:01.260Z,1.40
2022-08-02T10:45:29.104Z,1.40
2022-08-02T10:48:19.839Z,1.35
2022-08-02T10:50:46.493Z,1.80
2022-08-02T10:53:23.756Z,1.50
2022-08-02T10:55:50.570Z,1.52
2022-08-02T10:58:26.148Z,1.90
2022-08-02T11:00:57.534Z,1.55
2022-08-02T11:03:39.309Z,1.60
2022-08-02T11:06:08.172Z,1.95
2022-08-02T11:08:34.908Z,1.55
2022-08-02T11:11:18.737Z,2.40
2022-08-02T11:14:04.169Z,1.70
2022-08-02T11:16:55.466Z,1.85
2022-08-02T11:19:28.448Z,1.80
2022-08-02T11:22:02.423Z,1.80
2022-08-02T11:24:31.333Z,1.63
2022-08-02T11:27:00.122Z,2.00
2022-08-02T11:29:53.103Z,1.90
2022-08-02T11:32:31.255Z,2.00
2022-08-02T11:34:59.005Z,1.60
2022-08-02T11:37:37.470Z,1.88
2022-08-02T11:40:19.647Z,2.00
2022-08-02T11:42:53.510Z,1.92
2022-08-02T11:45:29.350Z,1.70
2022-08-02T11:47:56.653Z,1.67
2022-08-02T11:50:29.814Z,1.80
2022-08-02T11:52:57.325Z,1.90
2022-08-02T11:55:29.132Z,1.70
2022-08-02T11:58:05.739Z,1.60
2022-08-02T12:00:32.515Z,1.73
2022-08-02T12:02:59.337Z,1.75
2022-08-02T12:05:51.252Z,1.85
2022-08-02T12:08:13.227Z,1.50
2022-08-02T12:10:48.265Z,1.60
2022-08-02T12:13:15.037Z,1.70
2022-08-02T12:15:46.704Z,1.90
2022-08-02T12:18:40.534Z,1.83
2022-08-02T12:21:27.481Z,2.80
2022-08-02T12:24:00.438Z,1.65
2022-08-02T12:26:28.119Z,1.77
2022-08-02T12:28:59.468Z,1.90
2022-08-02T12:31:55.822Z,1.90
2022-08-02T12:34:30.050Z,1.88
2022-08-02T12:37:05.866Z,1.85
2022-08-02T12:39:42.376Z,1.50
2022-08-02T12:42:11.633Z,1.70
2022-08-02T12:44:59.343Z,1.60
2022-08-02T12:47:31.431Z,1.75
2022-08-02T12:50:27.132Z,1.65
2022-08-02T12:53:30.667Z,1.77
2022-08-02T12:56:01.905Z,1.95
2022-08-02T12:58:31.104Z,1.80
2022-08-02T13:01:00.884Z,1.92
2022-08-02T13:04:09.896Z,1.83
2022-08-02T13:06:42.188Z,1.80
2022-08-02T13:09:02.331Z,1.95
2022-08-02T13:11:28.839Z,1.88
2022-08-02T13:13:55.906Z,1.73
2022-08-02T13:16:31.190Z,1.88
2022-08-02T13:18:59.200Z,1.70
2022-08-02T13:21:39.995Z,1.75
2022-08-02T13:24:32.806Z,1.90
2022-08-02T13:26:55.194Z,1.73
2022-08-02T13:29:21.677Z,1.75
2022-08-02T13:31:48.248Z,1.75
2022-08-02T13:34:16.501Z,1.77
2022-08-02T13:36:43.051Z,2.38
2022-08-02T13:39:10.323Z,1.58
2022-08-02T13:41:36.744Z,2.05
2022-08-02T13:44:09.926Z,1.70
2022-08-02T13:46:39.734Z,1.83
2022-08-02T13:49:17.856Z,1.90
2022-08-02T13:51:45.866Z,1.95
2022-08-02T13:54:12.413Z,1.67
2022-08-02T13:56:38.861Z,1.80
2022-08-02T13:59:55.402Z,2.03
2022-08-02T14:01:53.199Z,1.77
2022-08-02T14:04:19.706Z,2.00
2022-08-02T14:06:46.196Z,1.88
2022-08-02T14:09:16.698Z,1.90
2022-08-02T14:11:43.990Z,1.70
2022-08-02T14:14:16.069Z,1.92
2022-08-02T14:16:46.647Z,1.65
2022-08-02T14:19:15.921Z,1.60
2022-08-02T14:21:46.619Z,1.50
2022-08-02T14:24:15.492Z,1.63
2022-08-02T14:26:42.218Z,1.75
2022-08-02T14:29:08.805Z,1.70
2022-08-02T14:31:37.905Z,1.77
2022-08-02T14:34:06.798Z,1.90
2022-08-02T14:36:33.453Z,1.92
2022-08-02T14:39:01.458Z,2.10
2022-08-02T14:41:27.978Z,1.88
2022-08-02T14:44:03.975Z,1.95
2022-08-02T14:46:41.221Z,1.88
2022-08-02T14:49:10.617Z,1.98
2022-08-02T14:51:38.201Z,1.70
2022-08-02T14:54:06.157Z,2.00
2022-08-02T14:56:35.291Z,2.03
2022-08-02T14:59:01.753Z,2.47
2022-08-02T15:01:28.253Z,2.08
2022-08-02T15:03:54.938Z,2.70
2022-08-02T15:06:21.422Z,3.00
2022-08-02T15:08:47.874Z,2.10
2022-08-02T15:11:14.375Z,1.98
2022-08-02T15:13:42.257Z,2.13
2022-08-02T15:16:09.244Z,1.90
2022-08-02T15:18:35.669Z,1.67
2022-08-02T15:21:05.118Z,1.70
2022-08-02T15:23:48.868Z,1.83
2022-08-02T15:26:15.344Z,1.75
2022-08-02T15:28:41.729Z,1.85
2022-08-02T15:31:08.127Z,1.85
2022-08-02T15:33:34.625Z,2.08
2022-08-02T15:36:01.325Z,1.70
2022-08-02T15:38:28.007Z,2.00
2022-08-02T15:40:54.392Z,1.70
2022-08-02T15:43:21.539Z,1.95
2022-08-02T15:45:48.317Z,1.80
2022-08-02T15:48:14.759Z,1.65
2022-08-02T15:50:41.191Z,1.42
2022-08-02T15:53:07.714Z,2.00
2022-08-02T15:55:51.983Z,1.80
2022-08-02T15:58:22.469Z,1.63
2022-08-02T16:00:49.415Z,1.95
2022-08-02T16:03:16.447Z,2.00
2022-08-02T16:05:43.138Z,1.95
2022-08-02T16:08:09.783Z,1.70
2022-08-02T16:10:36.612Z,1.90
2022-08-02T16:13:22.212Z,2.03
2022-08-02T16:15:48.621Z,2.10
2022-08-02T16:18:15.024Z,2.03
2022-08-02T16:20:41.445Z,2.00
2022-08-02T16:23:07.920Z,2.05
2022-08-02T16:25:37.608Z,1.83
2022-08-02T16:28:08.059Z,1.83
2022-08-02T16:30:35.431Z,2.03
2022-08-02T16:33:02.100Z,1.70
2022-08-02T16:35:28.685Z,2.00
2022-08-02T16:37:55.442Z,2.30
2022-08-02T16:40:22.322Z,1.85
2022-08-02T16:42:50.876Z,2.47
2022-08-02T16:45:20.083Z,2.63
2022-08-02T16:47:57.228Z,2.10
2022-08-02T16:50:28.515Z,2.47
2022-08-02T16:52:58.039Z,2.20
2022-08-02T16:55:24.950Z,2.00
2022-08-02T16:57:51.439Z,2.30
2022-08-02T17:00:23.399Z,2.40
2022-08-02T17:02:49.914Z,2.17
2022-08-02T17:05:16.370Z,2.30
2022-08-02T17:08:15.614Z,2.20
2022-08-02T17:10:30.944Z,2.30
2022-08-02T17:12:58.660Z,2.25
2022-08-02T17:16:07.641Z,2.55
2022-08-02T17:18:26.329Z,2.33
2022-08-02T17:20:53.203Z,2.20
2022-08-02T17:23:19.647Z,1.77
2022-08-02T17:25:52.378Z,1.88
2022-08-02T17:28:19.223Z,1.70
2022-08-02T17:30:45.764Z,2.28
2022-08-02T17:33:12.491Z,2.22
2022-08-02T17:35:43.875Z,2.00
2022-08-02T17:38:26.624Z,2.33
2022-08-02T17:41:06.549Z,2.15
2022-08-02T17:43:41.670Z,1.92
2022-08-02T17:46:08.392Z,1.80
2022-08-02T17:48:54.883Z,1.88
2022-08-02T17:52:15.921Z,2.00
2022-08-02T17:54:09.117Z,1.95
2022-08-02T17:56:36.637Z,2.05
2022-08-02T17:59:12.728Z,1.60
2022-08-02T18:01:52.679Z,1.83
2022-08-02T18:04:20.196Z,1.85
2022-08-02T18:06:59.060Z,2.13
2022-08-02T18:09:31.977Z,2.25
2022-08-02T18:11:58.428Z,1.90
2022-08-02T18:14:26.418Z,2.55
2022-08-02T18:16:53.361Z,1.95
2022-08-02T18:19:19.882Z,2.10
2022-08-02T18:21:47.900Z,2.00
2022-08-02T18:24:15.811Z,1.92
2022-08-02T18:26:43.523Z,2.13
2022-08-02T18:29:10.816Z,2.00
2022-08-02T18:31:40.107Z,2.72
2022-08-02T18:34:16.556Z,1.83
2022-08-02T18:36:47.138Z,3.93
2022-08-02T18:39:16.920Z,2.47
2022-08-02T18:41:48.009Z,2.42
2022-08-02T18:44:15.834Z,2.00
2022-08-02T18:46:43.198Z,2.33
2022-08-02T18:49:14.715Z,2.00
2022-08-02T18:51:42.529Z,2.08
2022-08-02T18:54:08.981Z,2.15
2022-08-02T18:56:38.968Z,2.20
2022-08-02T18:59:06.220Z,2.33
2022-08-02T19:01:35.587Z,2.53
2022-08-02T19:04:09.312Z,2.20
2022-08-02T19:06:36.090Z,2.30
2022-08-02T19:09:11.612Z,2.30
2022-08-02T19:11:41.170Z,2.10
2022-08-02T19:14:08.326Z,2.00
2022-08-02T19:16:36.964Z,2.40
2022-08-02T19:19:05.307Z,2.40
2022-08-02T19:22:18.557Z,2.63
2022-08-02T19:24:18.937Z,2.20
2022-08-02T19:26:51.985Z,4.57
2022-08-02T19:29:42.075Z,2.90
2022-08-02T19:34:55.692Z,2.53
2022-08-02T19:37:22.104Z,2.75
2022-08-02T19:39:48.680Z,2.40
2022-08-02T19:42:16.438Z,2.45
2022-08-02T19:44:45.681Z,2.55
2022-08-02T19:47:12.624Z,2.88
2022-08-02T19:49:46.320Z,2.92
2022-08-02T19:52:21.883Z,2.83
2022-08-02T19:54:56.014Z,2.80
2022-08-02T19:57:25.234Z,2.92
2022-08-02T19:59:52.789Z,2.92
2022-08-02T20:02:20.681Z,2.70
2022-08-02T20:04:50.419Z,3.08
2022-08-02T20:07:54.526Z,2.70
2022-08-02T20:10:06.955Z,3.00
2022-08-02T20:12:38.979Z,3.30
2022-08-02T20:15:14.868Z,3.05
2022-08-02T20:17:47.751Z,2.80
2022-08-02T20:20:16.964Z,2.60
2022-08-02T20:23:33.590Z,2.65
2022-08-02T20:25:50.473Z,3.00
2022-08-02T20:28:21.457Z,3.20
2022-08-02T20:30:48.545Z,2.63
2022-08-02T20:33:22.123Z,2.55
2022-08-02T20:35:49.840Z,2.88
2022-08-02T20:38:16.484Z,2.63
2022-08-02T20:40:43.394Z,2.60
2022-08-02T20:43:10.336Z,2.40
2022-08-02T20:45:36.765Z,2.55
2022-08-02T20:48:03.389Z,2.25
2022-08-02T20:50:49.164Z,2.75
2022-08-02T20:53:34.912Z,2.40
2022-08-02T20:56:21.524Z,2.25
2022-08-02T20:58:48.130Z,2.67
2022-08-02T21:01:21.322Z,2.72
2022-08-02T21:03:58.769Z,2.78
2022-08-02T21:06:28.010Z,2.80
2022-08-02T21:08:55.483Z,2.83
2022-08-02T21:11:25.618Z,2.65
2022-08-02T21:14:09.232Z,2.85
2022-08-02T21:16:36.545Z,2.25
2022-08-02T21:19:09.605Z,2.95
2022-08-02T21:21:36.704Z,3.03
2022-08-02T21:24:03.557Z,2.42
2022-08-02T21:26:31.179Z,2.40
2022-08-02T21:29:03.684Z,2.65
2022-08-02T21:31:33.395Z,2.40
2022-08-02T21:34:02.720Z,2.50
2022-08-02T21:36:32.581Z,2.80
2022-08-02T21:39:09.234Z,3.00
2022-08-02T21:41:46.312Z,2.63
2022-08-02T21:44:21.773Z,3.05
2022-08-02T21:46:52.991Z,3.03
2022-08-02T21:49:27.048Z,2.80
2022-08-02T21:52:08.410Z,2.72
2022-08-02T21:54:35.061Z,2.85
2022-08-02T21:57:01.534Z,2.70
2022-08-02T21:59:30.521Z,2.50
2022-08-02T22:01:59.382Z,2.75
2022-08-02T22:04:26.537Z,2.72
2022-08-02T22:06:57.229Z,2.70
2022-08-02T22:09:42.320Z,3.00
2022-08-02T22:15:00.435Z,2.75
2022-08-02T22:17:50.955Z,3.45
2022-08-02T22:20:18.470Z,2.95
2022-08-02T22:22:48.272Z,2.97
2022-08-02T22:25:26.956Z,2.70
2022-08-02T22:28:36.060Z,2.70
2022-08-02T22:30:53.059Z,3.00
2022-08-02T22:33:41.962Z,2.80
2022-08-02T22:36:28.207Z,3.08
2022-08-02T22:38:54.941Z,2.85
2022-08-02T22:41:22.396Z,2.75
2022-08-02T22:43:49.452Z,2.90
2022-08-02T22:46:16.761Z,2.78
2022-08-02T22:48:44.246Z,2.85
2022-08-02T22:51:15.669Z,2.88
2022-08-02T22:53:43.093Z,2.78
2022-08-02T22:56:10.348Z,2.70
2022-08-02T22:58:57.318Z,2.90
2022-08-02T22:59:04.210Z,2.42
2022-08-02T22:59:06.043Z,2.88
2022-08-02T23:01:23.562Z,2.90
2022-08-02T23:03:50.107Z,2.83
2022-08-02T23:06:19.106Z,2.92
2022-08-02T23:08:49.649Z,3.28
2022-08-02T23:11:16.115Z,3.70
2022-08-02T23:13:42.559Z,2.80
2022-08-02T23:16:27.612Z,2.65
2022-08-02T23:19:12.616Z,3.08
2022-08-02T23:22:01.518Z,2.92
2022-08-02T23:24:26.842Z,3.15
2022-08-02T23:26:53.377Z,2.90
2022-08-02T23:29:19.773Z,3.20
2022-08-02T23:31:46.252Z,3.08
2022-08-02T23:34:13.034Z,3.40
2022-08-02T23:36:39.448Z,2.88
2022-08-02T23:39:06.083Z,2.70
2022-08-02T23:41:34.531Z,2.78
2022-08-02T23:44:13.560Z,2.72
2022-08-02T23:46:43.005Z,2.80
2022-08-02T23:49:10.231Z,3.28
2022-08-02T23:51:36.724Z,2.60
2022-08-02T23:54:03.160Z,3.13
2022-08-02T23:56:29.752Z,3.17
2022-08-02T23:58:56.223Z,2.72
